Time;durP1;ratioP1;P1;durP2;ratioP2;P2;SDS_P1;SDS_P2;PMS_P1;PMS_P2;Temp;Humidity;BMP_temperature;BMP_pressure;BME280_temperature;BME280_humidity;BME280_pressure;Samples;Min_cycle;Max_cycle;Signal;HPM_P1;HPM_P2
2023/07/03 00:00:27;;;;;;;6.28;4.55;;;;;;;25.92;57.40;100266.72;5080598;28;19942;-85
2023/07/03 00:03:20;;;;;;;;;;;;;;;25.89;57.56;100270.38;5076984;28;20044;-85
2023/07/03 00:06:14;;;;;;;5.28;4.43;;;;;;;25.90;57.28;100266.38;5052610;28;19917;-86
2023/07/03 00:09:07;;;;;;;5.13;4.13;;;;;;;25.91;57.92;100272.72;5056301;28;20047;-84
2023/07/03 00:12:02;;;;;;;5.13;3.47;;;;;;;25.90;58.32;100262.81;5070384;28;20048;-84
2023/07/03 00:14:57;;;;;;;15.05;4.28;;;;;;;25.87;57.21;100260.88;5078958;28;20048;-84
2023/07/03 00:17:49;;;;;;;10.32;4.55;;;;;;;25.90;57.20;100265.59;5090748;28;20059;-83
2023/07/03 00:20:38;;;;;;;5.50;4.03;;;;;;;25.88;58.18;100268.81;5074448;28;20047;-83
2023/07/03 00:23:33;;;;;;;4.22;3.40;;;;;;;25.88;58.37;100265.22;5073192;28;20246;-84
2023/07/03 00:26:25;;;;;;;6.03;4.10;;;;;;;25.86;57.68;100265.66;5055874;28;20059;-83
2023/07/03 00:29:20;;;;;;;8.25;4.65;;;;;;;25.85;57.58;100263.31;5064044;28;20051;-83
2023/07/03 00:32:10;;;;;;;8.02;4.63;;;;;;;25.85;57.45;100263.31;5095710;28;20047;-84
2023/07/03 00:35:05;;;;;;;4.47;3.50;;;;;;;25.86;58.13;100262.06;5074810;28;20056;-84
2023/07/03 00:38:00;;;;;;;8.93;4.45;;;;;;;25.86;57.55;100262.84;5055719;28;20047;-84
2023/07/03 00:40:50;;;;;;;6.22;3.80;;;;;;;25.83;58.03;100260.16;5061243;28;20044;-83
2023/07/03 00:43:47;;;;;;;6.28;4.20;;;;;;;25.78;57.42;100264.25;5054637;28;20512;-84
2023/07/03 00:46:45;;;;;;;5.93;3.88;;;;;;;25.76;57.16;100265.88;5074249;28;20424;-83
2023/07/03 00:49:35;;;;;;;;;;;;;;;25.81;57.94;100260.59;5076085;28;20047;-84
2023/07/03 00:52:31;;;;;;;7.43;3.78;;;;;;;25.80;57.80;100266.59;5078912;28;19912;-84
2023/07/03 00:55:26;;;;;;;7.95;4.22;;;;;;;25.79;57.67;100265.81;5058519;28;20031;-85
2023/07/03 00:58:16;;;;;;;7.45;4.45;;;;;;;25.76;57.00;100265.88;5071949;28;20039;-84
2023/07/03 01:01:28;;;;;;;6.55;4.53;;;;;;;25.62;56.84;100255.81;5077971;28;20119;-84
2023/07/03 01:04:24;;;;;;;7.18;4.97;;;;;;;25.60;57.22;100269.38;5055708;28;20056;-83
2023/07/03 01:07:23;;;;;;;6.55;5.03;;;;;;;25.42;57.63;100258.56;5069285;28;20420;-82
2023/07/03 01:10:18;;;;;;;6.20;5.03;;;;;;;25.48;58.48;100265.22;5074851;28;20039;-84
2023/07/03 01:13:15;;;;;;;6.93;4.57;;;;;;;25.59;58.49;100264.25;5057473;28;20047;-81
2023/07/03 01:16:07;;;;;;;4.45;3.78;;;;;;;25.62;58.61;100266.16;5074776;28;20409;-82
2023/07/03 01:19:03;;;;;;;6.10;5.50;;;;;;;25.43;59.03;100271.28;5075448;28;20059;-84
2023/07/03 01:22:02;;;;;;;9.40;5.25;;;;;;;25.59;58.67;100278.97;5086086;28;20444;-83
2023/07/03 01:24:54;;;;;;;5.50;4.47;;;;;;;25.63;59.06;100267.75;5111492;28;20047;-81
2023/07/03 01:27:52;;;;;;;8.85;5.32;;;;;;;25.59;59.34;100272.59;5059050;28;20035;-83
2023/07/03 01:30:49;;;;;;;10.00;4.80;;;;;;;25.35;60.36;100278.19;5071001;28;20047;-83
2023/07/03 01:33:44;;;;;;;8.55;6.15;;;;;;;25.18;61.11;100278.53;5064763;28;20052;-84
2023/07/03 01:36:42;;;;;;;8.02;6.10;;;;;;;25.24;61.19;100274.03;5086888;28;20044;-84
2023/07/03 01:39:38;;;;;;;5.57;4.28;;;;;;;25.32;60.72;100286.59;5070336;28;20036;-86
2023/07/03 01:42:33;;;;;;;7.05;5.35;;;;;;;25.33;60.70;100290.97;5057057;28;20048;-86
2023/07/03 01:45:28;;;;;;;8.98;7.47;;;;;;;24.79;64.32;100282.72;5065012;28;20048;-84
2023/07/03 01:48:22;;;;;;;12.10;8.27;;;;;;;25.02;63.11;100277.19;5069185;28;20035;-84
2023/07/03 01:51:21;;;;;;;11.35;7.90;;;;;;;25.07;63.19;100276.72;5078560;28;20052;-86
2023/07/03 01:54:46;;;;;;;12.27;8.13;;;;;;;25.01;62.96;100280.41;5071795;28;20118;-85
2023/07/03 01:57:39;;;;;;;;;;;;;;;25.21;62.19;100283.22;5062991;28;20047;-83
2023/07/03 02:00:51;;;;;;;8.70;6.60;;;;;;;25.17;63.01;100288.84;5075892;28;19912;-83
2023/07/03 02:03:47;;;;;;;7.75;5.80;;;;;;;25.27;62.51;100285.09;5066797;28;20039;-84
2023/07/03 02:06:43;;;;;;;10.82;8.25;;;;;;;24.89;65.88;100281.78;5087872;28;20040;-83
2023/07/03 02:09:35;;;;;;;;;;;;;;;23.87;71.62;100273.69;5063835;28;20044;-83
2023/07/03 02:12:29;;;;;;;21.30;10.68;;;;;;;24.30;71.50;100278.72;5064196;28;19924;-85
2023/07/03 02:15:22;;;;;;;36.40;12.82;;;;;;;24.27;79.57;100274.78;5066133;28;20032;-84
2023/07/03 02:18:17;;;;;;;23.38;13.45;;;;;;;24.02;83.33;100274.31;5083014;28;20032;-84
2023/07/03 02:21:12;;;;;;;16.65;11.73;;;;;;;24.13;82.95;100279.69;5092938;28;20045;-82
2023/07/03 02:24:07;;;;;;;18.52;13.20;;;;;;;24.23;83.36;100276.03;5079612;28;20485;-81
2023/07/03 02:27:05;;;;;;;9.82;7.40;;;;;;;24.32;78.61;100269.97;5064291;28;20040;-81
2023/07/03 02:29:58;;;;;;;;;;;;;;;24.45;77.32;100280.06;5070915;28;20039;-85
2023/07/03 02:32:52;;;;;;;15.18;11.32;;;;;;;24.56;73.90;100272.38;5071264;28;20288;-85
2023/07/03 02:35:44;;;;;;;23.10;9.02;;;;;;;24.71;74.95;100273.72;5066860;28;20032;-82
2023/07/03 02:38:39;;;;;;;14.90;8.57;;;;;;;24.87;72.49;100272.25;5073230;28;20047;-85
2023/07/03 02:41:33;;;;;;;12.77;11.02;;;;;;;24.93;71.74;100265.84;5072205;28;20032;-84
2023/07/03 02:44:28;;;;;;;14.27;9.80;;;;;;;25.06;71.43;100254.88;5067132;28;20048;-83
2023/07/03 02:47:20;;;;;;;;;;;;;;;25.18;70.37;100254.25;5089658;28;20043;-83
2023/07/03 02:50:13;;;;;;;20.00;10.85;;;;;;;25.24;69.87;100260.91;5060239;28;19913;-82
2023/07/03 02:53:07;;;;;;;20.58;12.45;;;;;;;25.27;70.13;100257.25;5088690;28;20037;-81
2023/07/03 02:56:02;;;;;;;19.10;14.32;;;;;;;25.18;72.09;100265.38;5052863;28;20044;-82
2023/07/03 02:58:57;;;;;;;136.48;41.08;;;;;;;25.06;72.60;100260.44;5068974;28;20028;-82
2023/07/03 03:01:53;;;;;;;190.57;49.78;;;;;;;25.08;71.82;100260.81;5043730;28;20048;-81
2023/07/03 03:04:47;;;;;;;52.83;20.48;;;;;;;25.18;70.35;100264.59;5075043;28;20037;-80
2023/07/03 03:07:42;;;;;;;24.10;14.65;;;;;;;25.22;71.67;100252.19;5129462;22;20053;-82
2023/07/03 03:10:37;;;;;;;33.58;16.10;;;;;;;25.20;70.78;100254.59;5041229;28;20433;-80
2023/07/03 03:13:26;;;;;;;;;;;;;;;25.17;71.13;100255.47;5053730;28;20494;-84
2023/07/03 03:16:18;;;;;;;42.05;15.13;;;;;;;25.08;71.50;100258.81;5034351;28;19912;-84
2023/07/03 03:19:13;;;;;;;18.95;14.18;;;;;;;25.06;72.03;100264.00;5052378;28;20033;-83
2023/07/03 03:22:05;;;;;;;18.00;14.38;;;;;;;25.02;72.22;100282.75;5034669;28;20037;-83
2023/07/03 03:24:59;;;;;;;16.27;12.05;;;;;;;24.97;73.89;100291.59;5047925;28;20045;-83
2023/07/03 03:27:55;;;;;;;13.93;10.82;;;;;;;25.12;71.10;100284.56;5037191;28;20528;-83
2023/07/03 03:30:50;;;;;;;13.77;10.80;;;;;;;25.22;70.67;100288.38;5052920;28;20501;-83
2023/07/03 03:33:44;;;;;;;12.38;10.23;;;;;;;25.28;70.34;100292.25;5022981;28;20045;-81
2023/07/03 03:36:42;;;;;;;18.92;13.82;;;;;;;25.20;73.01;100296.34;5037522;28;20402;-84
2023/07/03 03:39:34;;;;;;;18.73;15.45;;;;;;;25.11;74.22;100301.69;5043794;28;20033;-82
2023/07/03 03:42:29;;;;;;;17.50;14.38;;;;;;;25.04;74.64;100297.03;5055194;28;20045;-83
2023/07/03 03:45:24;;;;;;;18.48;16.50;;;;;;;24.95;75.59;100304.34;5036873;28;20506;-83
2023/07/03 03:48:18;;;;;;;20.95;13.60;;;;;;;24.91;75.65;100298.84;5050622;28;20042;-83
2023/07/03 03:51:13;;;;;;;17.75;15.18;;;;;;;24.82;76.26;100290.22;5036582;28;20417;-82
2023/07/03 03:54:07;;;;;;;16.75;14.95;;;;;;;24.84;75.74;100289.81;5043797;28;20049;-82
2023/07/03 03:57:02;;;;;;;22.17;15.73;;;;;;;24.89;75.89;100283.81;5036889;28;20033;-83
2023/07/03 03:59:51;;;;;;;21.95;13.65;;;;;;;24.88;75.41;100283.00;5043745;28;20409;-82
2023/07/03 04:02:46;;;;;;;15.35;12.48;;;;;;;24.99;73.20;100282.84;5032961;28;20040;-82
2023/07/03 04:05:41;;;;;;;14.77;11.98;;;;;;;25.15;71.29;100282.91;5025356;28;20037;-82
2023/07/03 04:08:36;;;;;;;17.42;13.73;;;;;;;25.14;72.85;100279.34;5053247;28;20049;-82
2023/07/03 04:11:31;;;;;;;16.92;12.48;;;;;;;25.11;72.68;100276.63;5048503;28;20060;-85
2023/07/03 04:14:25;;;;;;;14.60;12.00;;;;;;;25.12;71.99;100273.44;5050833;28;20041;-83
2023/07/03 04:17:20;;;;;;;15.13;11.02;;;;;;;25.11;71.56;100274.66;5051945;28;20421;-82
2023/07/03 04:20:17;;;;;;;12.88;10.88;;;;;;;25.17;70.78;100274.16;5049927;28;20037;-83
2023/07/03 04:23:09;;;;;;;13.35;10.38;;;;;;;25.23;70.47;100281.59;5056232;28;20036;-83
2023/07/03 04:26:04;;;;;;;13.93;11.45;;;;;;;25.26;70.54;100279.94;5048645;28;20029;-82
2023/07/03 04:28:56;;;;;;;;;;;;;;;25.33;69.69;100285.41;5047343;28;20037;-79
2023/07/03 04:31:46;;;;;;;13.52;10.40;;;;;;;25.24;70.49;100287.97;5052905;28;19913;-82
2023/07/03 04:34:38;;;;;;;16.42;11.77;;;;;;;25.32;70.73;100281.81;5043906;28;20049;-79
2023/07/03 04:37:30;;;;;;;;;;;;;;;25.12;72.11;100292.91;5049271;28;20034;-79
2023/07/03 04:40:22;;;;;;;11.38;9.38;;;;;;;24.99;71.49;100286.38;5058494;28;19912;-81
2023/07/03 04:43:15;;;;;;;12.15;9.70;;;;;;;24.89;72.31;100281.78;5056202;28;20405;-81
2023/07/03 04:46:10;;;;;;;12.10;9.50;;;;;;;24.53;74.72;100291.88;5063605;28;20040;-84
2023/07/03 04:49:04;;;;;;;12.63;9.05;;;;;;;24.41;75.32;100286.91;5049628;28;20536;-82
2023/07/03 04:51:58;;;;;;;10.25;8.20;;;;;;;24.37;75.60;100295.28;5050517;28;20049;-85
2023/07/03 04:54:50;;;;;;;12.45;8.27;;;;;;;24.32;75.54;100303.31;5062106;28;20047;-81
2023/07/03 04:57:44;;;;;;;10.60;8.48;;;;;;;24.26;75.56;100308.56;5055201;28;20043;-85
2023/07/03 05:00:36;;;;;;;9.07;8.18;;;;;;;24.25;75.60;100307.75;5060376;28;20044;-82
2023/07/03 05:03:31;;;;;;;12.88;7.93;;;;;;;24.02;76.00;100312.44;5055538;28;20048;-83
2023/07/03 05:06:26;;;;;;;6.95;6.25;;;;;;;24.13;76.05;100319.41;5047610;28;20040;-80
2023/07/03 05:09:20;;;;;;;11.15;7.00;;;;;;;24.27;75.70;100324.03;5054436;28;20048;-81
2023/07/03 05:12:13;;;;;;;7.50;6.63;;;;;;;24.29;75.56;100321.59;5044847;28;20048;-80
2023/07/03 05:15:09;;;;;;;13.82;6.97;;;;;;;24.36;75.59;100331.84;5047999;28;20056;-82
2023/07/03 05:18:01;;;;;;;9.15;7.43;;;;;;;24.36;74.94;100338.19;5057490;28;20044;-82
2023/07/03 05:20:56;;;;;;;9.80;6.60;;;;;;;24.39;74.81;100342.91;5052185;28;20456;-81
2023/07/03 05:23:51;;;;;;;13.63;7.60;;;;;;;24.33;75.49;100344.56;5053592;28;20524;-83
2023/07/03 05:26:45;;;;;;;9.27;6.85;;;;;;;24.43;75.10;100342.88;5047288;28;20052;-80
2023/07/03 05:29:38;;;;;;;;;;;;;;;24.44;75.20;100347.19;5043218;28;20044;-82
2023/07/03 05:32:31;;;;;;;9.23;6.60;;;;;;;24.54;74.79;100349.03;5057718;28;19913;-81
2023/07/03 05:35:25;;;;;;;8.27;7.35;;;;;;;24.66;73.91;100340.94;5056568;28;20513;-82
2023/07/03 05:38:20;;;;;;;8.82;6.45;;;;;;;24.64;74.36;100348.91;5058798;28;20401;-81
2023/07/03 05:41:13;;;;;;;10.32;7.88;;;;;;;24.69;73.89;100356.75;5056512;28;20052;-82
2023/07/03 05:44:08;;;;;;;9.20;6.60;;;;;;;24.83;73.14;100352.22;5044410;28;20044;-80
2023/07/03 05:47:03;;;;;;;11.05;7.60;;;;;;;24.88;72.51;100358.13;5050962;28;20044;-83
2023/07/03 05:49:58;;;;;;;11.15;7.03;;;;;;;24.92;72.50;100358.06;5051039;28;20067;-82
2023/07/03 05:52:52;;;;;;;7.25;6.10;;;;;;;24.94;72.42;100347.31;5059842;28;20048;-82
2023/07/03 05:55:54;;;;;;;8.68;6.07;;;;;;;25.16;71.31;100376.34;5057285;28;20067;-80
2023/07/03 05:58:48;;;;;;;11.68;7.35;;;;;;;25.12;72.43;100375.63;5056530;28;20048;-82
2023/07/03 06:01:41;;;;;;;8.75;5.85;;;;;;;25.19;71.70;100378.31;5056524;28;20112;-80
2023/07/03 06:04:32;;;;;;;12.40;6.80;;;;;;;25.23;70.84;100376.22;5053260;28;20111;-82
2023/07/03 06:07:22;;;;;;;11.05;7.25;;;;;;;25.25;71.03;100382.16;5050780;28;20053;-80
2023/07/03 06:10:12;;;;;;;8.30;6.53;;;;;;;25.25;70.55;100371.00;5054339;28;20057;-80
2023/07/03 06:12:59;;;;;;;11.95;7.15;;;;;;;25.36;70.69;100377.19;5049597;28;20055;-81
2023/07/03 06:15:54;;;;;;;12.77;8.38;;;;;;;25.25;71.91;100378.56;5052861;28;20048;-80
2023/07/03 06:18:48;;;;;;;12.65;7.97;;;;;;;25.24;71.85;100377.81;5050993;28;20056;-80
2023/07/03 06:21:36;;;;;;;;;;;;;;;25.20;71.82;100374.28;5051295;28;20048;-80
2023/07/03 06:24:30;;;;;;;11.85;9.40;;;;;;;25.23;71.97;100362.31;5057860;28;19912;-80
2023/07/03 06:27:25;;;;;;;12.88;9.82;;;;;;;25.22;71.66;100374.66;5050066;28;20036;-81
2023/07/03 06:30:14;;;;;;;;;;;;;;;25.14;72.52;100370.44;5058807;28;20048;-82
2023/07/03 06:33:06;;;;;;;14.57;11.10;;;;;;;25.02;73.06;100371.00;5053634;28;19913;-81
2023/07/03 06:35:59;;;;;;;21.27;12.18;;;;;;;25.07;72.84;100371.31;5050732;28;20036;-81
2023/07/03 06:38:57;;;;;;;14.40;10.50;;;;;;;25.11;71.45;100377.63;5051586;28;20045;-81
2023/07/03 06:41:49;;;;;;;15.10;10.55;;;;;;;25.06;72.03;100380.09;5048530;28;20037;-80
2023/07/03 06:44:43;;;;;;;12.77;9.80;;;;;;;25.19;70.21;100381.09;5041910;28;20045;-79
2023/07/03 06:47:35;;;;;;;11.45;9.88;;;;;;;25.27;70.56;100378.94;5055426;28;20047;-82
2023/07/03 06:50:30;;;;;;;12.55;8.73;;;;;;;25.28;70.06;100380.53;5047747;28;20056;-81
2023/07/03 06:53:24;;;;;;;15.13;9.82;;;;;;;25.28;69.58;100388.88;5052891;28;20044;-81
2023/07/03 06:56:16;;;;;;;;;;;;;;;25.38;70.67;100387.91;5050467;28;20047;-83
2023/07/03 06:59:08;;;;;;;13.65;9.98;;;;;;;25.37;70.55;100395.47;5049942;28;19913;-83
2023/07/03 07:02:03;;;;;;;12.60;10.20;;;;;;;25.34;69.88;100398.34;5050834;28;20052;-82
2023/07/03 07:04:58;;;;;;;;;;;;;;;25.35;70.99;100406.25;5045723;28;20037;-82
2023/07/03 07:07:48;;;;;;;13.07;9.95;;;;;;;25.40;69.65;100411.31;5048434;28;20289;-84
2023/07/03 07:10:45;;;;;;;14.40;10.63;;;;;;;25.36;71.25;100405.03;5055465;28;20048;-83
2023/07/03 07:13:35;;;;;;;11.18;9.70;;;;;;;25.38;70.45;100402.63;5047763;28;20033;-84
2023/07/03 07:16:31;;;;;;;14.70;10.60;;;;;;;25.34;71.01;100409.47;5057634;28;20044;-83
2023/07/03 07:19:23;;;;;;;12.07;10.27;;;;;;;25.30;72.17;100409.50;5051654;28;20045;-81
2023/07/03 07:22:16;;;;;;;11.57;9.45;;;;;;;25.33;70.87;100414.25;5050813;28;20045;-81
2023/07/03 07:25:10;;;;;;;11.93;9.23;;;;;;;25.38;70.80;100413.75;5057067;28;20060;-81
2023/07/03 07:28:02;;;;;;;;;;;;;;;25.45;70.28;100421.97;5049218;28;20044;-84
2023/07/03 07:30:57;;;;;;;8.73;7.82;;;;;;;25.57;67.96;100417.03;5056630;28;19920;-84
2023/07/03 07:33:47;;;;;;;8.77;7.38;;;;;;;25.62;67.95;100414.56;5050278;28;20060;-85
2023/07/03 07:36:36;;;;;;;9.50;7.57;;;;;;;25.67;68.55;100413.28;5052055;28;20048;-86
2023/07/03 07:39:30;;;;;;;9.18;7.18;;;;;;;25.80;66.70;100423.38;5053476;28;20049;-85
2023/07/03 07:42:25;;;;;;;7.20;5.95;;;;;;;25.89;65.66;100425.63;5051413;28;20059;-85
2023/07/03 07:45:17;;;;;;;11.73;7.00;;;;;;;25.88;67.23;100422.06;5056170;28;20064;-84
2023/07/03 07:48:09;;;;;;;;;;;;;;;25.92;64.67;100424.75;5054760;28;20044;-85
2023/07/03 07:50:58;;;;;;;6.75;6.05;;;;;;;26.07;65.66;100422.47;5051492;28;19916;-84
2023/07/03 07:53:53;;;;;;;8.55;6.20;;;;;;;26.17;65.28;100421.50;5054657;28;20040;-82
2023/07/03 07:56:47;;;;;;;12.07;8.18;;;;;;;26.03;66.59;100425.34;5049589;28;20413;-81
2023/07/03 07:59:40;;;;;;;;;;;;;;;26.07;65.18;100426.06;5056299;28;20061;-83
2023/07/03 08:02:36;;;;;;;10.40;8.60;;;;;;;26.00;66.88;100431.78;5052660;28;20328;-84
2023/07/03 08:05:31;;;;;;;9.77;8.73;;;;;;;25.93;67.24;100437.50;5054589;28;20048;-85
2023/07/03 08:08:23;;;;;;;;;;;;;;;26.01;67.49;100438.16;5057567;28;20040;-81
2023/07/03 08:11:14;;;;;;;8.48;7.55;;;;;;;26.10;67.08;100436.38;5056822;28;19920;-83
2023/07/03 08:14:08;;;;;;;9.20;7.75;;;;;;;26.05;66.36;100448.00;5052880;28;20044;-81
2023/07/03 08:16:58;;;;;;;;;;;;;;;26.22;65.91;100443.31;5051161;28;20430;-82
2023/07/03 08:19:52;;;;;;;10.63;7.63;;;;;;;26.26;64.51;100438.50;5040953;28;19913;-81
2023/07/03 08:22:46;;;;;;;9.50;7.80;;;;;;;26.33;65.08;100444.69;5052328;28;20040;-82
2023/07/03 08:25:41;;;;;;;10.55;8.35;;;;;;;26.41;63.91;100455.72;5049602;28;20404;-83
2023/07/03 08:28:33;;;;;;;9.52;8.50;;;;;;;26.26;65.46;100450.41;5047785;28;20047;-83
2023/07/03 08:31:25;;;;;;;13.18;8.68;;;;;;;26.41;65.46;100458.50;5055014;28;20052;-84
2023/07/03 08:34:17;;;;;;;;;;;;;;;26.49;65.83;100468.28;5046254;28;20052;-81
2023/07/03 08:37:09;;;;;;;10.80;9.15;;;;;;;26.34;65.19;100463.00;5046018;28;19917;-79
2023/07/03 08:40:01;;;;;;;12.60;10.60;;;;;;;26.25;66.11;100459.22;5044556;28;20045;-84
2023/07/03 08:42:59;;;;;;;13.50;11.35;;;;;;;26.35;66.10;100458.22;5046810;28;20045;-79
2023/07/03 08:45:52;;;;;;;13.95;11.13;;;;;;;26.37;66.14;100462.13;5051385;28;20056;-80
2023/07/03 08:48:48;;;;;;;15.48;12.35;;;;;;;26.39;65.89;100459.72;5049441;28;20028;-80
2023/07/03 08:51:41;;;;;;;17.00;11.77;;;;;;;26.24;66.24;100452.84;5045342;28;20040;-78
2023/07/03 08:54:37;;;;;;;10.40;8.70;;;;;;;26.32;65.39;100451.47;5055302;28;20045;-79
2023/07/03 08:57:32;;;;;;;14.15;10.00;;;;;;;26.42;65.88;100455.25;5053614;28;20044;-79
2023/07/03 09:00:26;;;;;;;10.20;9.10;;;;;;;26.52;64.33;100468.19;5051952;28;20525;-78
2023/07/03 09:03:48;;;;;;;8.10;7.30;;;;;;;26.56;63.33;100451.41;5047730;28;20425;-78
2023/07/03 09:06:41;;;;;;;9.57;7.97;;;;;;;26.55;62.92;100452.63;5082023;23;20405;-83
2023/07/03 09:09:41;;;;;;;13.23;7.28;;;;;;;26.76;62.46;100460.53;5072693;28;20035;-83
2023/07/03 09:12:50;;;;;;;7.88;6.88;;;;;;;26.75;61.79;100464.53;5060919;28;20064;-85
2023/07/03 09:16:12;;;;;;;9.98;7.30;;;;;;;26.49;60.53;100468.28;5083256;28;20043;-83
2023/07/03 09:19:20;;;;;;;8.70;7.28;;;;;;;26.43;61.70;100462.41;5060209;28;20047;-83
2023/07/03 09:22:28;;;;;;;10.32;7.78;;;;;;;26.56;61.01;100468.16;5059725;28;20051;-84
2023/07/03 09:25:33;;;;;;;9.15;6.70;;;;;;;26.49;61.32;100468.28;5047615;28;20060;-85
2023/07/03 09:28:28;;;;;;;8.52;6.47;;;;;;;26.55;61.34;100472.94;5069047;28;20052;-85
2023/07/03 09:31:15;;;;;;;10.70;7.03;;;;;;;26.50;60.36;100470.66;5054753;28;20517;-85
2023/07/03 09:34:07;;;;;;;9.45;7.43;;;;;;;26.57;59.77;100472.47;5065567;28;20060;-85
2023/07/03 09:36:58;;;;;;;8.40;7.20;;;;;;;26.76;59.27;100474.50;5066938;28;20117;-85
2023/07/03 09:39:51;;;;;;;9.13;6.50;;;;;;;26.65;60.25;100476.72;5056750;28;20043;-85
2023/07/03 09:42:44;;;;;;;8.77;6.30;;;;;;;26.65;59.43;100469.13;5059916;28;20051;-84
2023/07/03 09:45:37;;;;;;;10.82;6.03;;;;;;;26.76;58.81;100466.91;5070776;28;20476;-85
2023/07/03 09:48:34;;;;;;;7.50;5.88;;;;;;;26.86;58.91;100458.72;5059872;28;20517;-85
2023/07/03 09:51:33;;;;;;;9.30;5.72;;;;;;;26.85;58.67;100463.53;5058114;28;20052;-84
2023/07/03 09:54:29;;;;;;;7.30;5.35;;;;;;;26.87;58.17;100461.09;5049678;28;20047;-85
2023/07/03 09:57:31;;;;;;;6.75;4.93;;;;;;;27.05;57.71;100467.09;5052122;28;20044;-85
2023/07/03 10:00:26;;;;;;;6.00;4.75;;;;;;;26.92;58.29;100474.53;5042434;28;20044;-83
2023/07/03 10:03:26;;;;;;;6.57;4.72;;;;;;;26.85;57.95;100455.16;5054807;28;20437;-84
2023/07/03 10:06:19;;;;;;;10.15;4.93;;;;;;;26.85;58.41;100457.94;5057140;28;20052;-84
2023/07/03 10:09:24;;;;;;;10.73;5.32;;;;;;;27.12;58.28;100460.56;5058452;28;20414;-84
2023/07/03 10:12:27;;;;;;;10.52;5.28;;;;;;;27.11;57.63;100456.19;5043809;28;20524;-84
2023/07/03 10:15:27;;;;;;;8.00;4.65;;;;;;;27.00;57.95;100450.06;5056341;28;20063;-85
2023/07/03 10:18:25;;;;;;;6.28;4.53;;;;;;;26.87;58.50;100452.72;5041461;28;20040;-84
2023/07/03 10:21:20;;;;;;;10.27;5.15;;;;;;;27.22;57.91;100465.91;5052920;28;20525;-85
2023/07/03 10:24:13;;;;;;;5.55;4.07;;;;;;;27.13;57.98;100457.31;5049333;28;20064;-84
2023/07/03 10:27:08;;;;;;;6.43;4.72;;;;;;;27.06;57.76;100456.72;5058810;28;20051;-84
2023/07/03 10:30:06;;;;;;;7.57;4.10;;;;;;;27.34;56.86;100452.44;5035968;28;20529;-84
2023/07/03 10:33:03;;;;;;;7.07;4.38;;;;;;;27.26;57.53;100465.00;5050295;28;20048;-83
2023/07/03 10:35:55;;;;;;;11.15;4.95;;;;;;;27.27;57.20;100461.00;5046256;28;20061;-84
2023/07/03 10:39:06;;;;;;;6.18;4.50;;;;;;;27.17;57.33;100469.19;5038136;28;20563;-84
2023/07/03 10:42:03;;;;;;;6.07;4.05;;;;;;;27.18;57.97;100469.97;5047241;28;20048;-84
2023/07/03 10:45:00;;;;;;;8.55;4.30;;;;;;;27.23;57.03;100461.06;5070357;28;20516;-84
2023/07/03 10:48:12;;;;;;;5.00;4.00;;;;;;;27.37;57.35;100468.34;5049444;28;20040;-84
2023/07/03 10:51:26;;;;;;;5.97;4.13;;;;;;;27.50;56.59;100458.06;5056887;28;20433;-84
2023/07/03 10:54:23;;;;;;;6.43;4.38;;;;;;;27.32;56.81;100455.69;5060601;28;20044;-83
2023/07/03 10:57:16;;;;;;;5.40;4.43;;;;;;;27.62;56.03;100462.97;5058561;28;20051;-83
2023/07/03 11:00:13;;;;;;;12.63;4.63;;;;;;;27.68;55.06;100461.22;5049928;28;20048;-82
2023/07/03 11:03:16;;;;;;;5.90;4.82;;;;;;;27.55;55.79;100454.75;5044971;28;20045;-84
2023/07/03 11:06:17;;;;;;;6.10;3.97;;;;;;;27.42;55.96;100451.84;5046370;28;20044;-83
2023/07/03 11:09:33;;;;;;;7.82;4.30;;;;;;;27.55;55.78;100446.34;5056881;28;20048;-84
2023/07/03 11:12:35;;;;;;;8.13;4.38;;;;;;;27.71;55.89;100443.56;5044141;28;20057;-85
2023/07/03 11:15:53;;;;;;;6.63;4.32;;;;;;;27.89;54.97;100449.44;5028704;28;20453;-84
2023/07/03 11:19:19;;;;;;;6.15;4.00;;;;;;;27.91;55.27;100449.81;5029981;28;20410;-84
2023/07/03 11:22:23;;;;;;;5.75;3.88;;;;;;;27.96;55.29;100456.88;5030552;28;20056;-84
2023/07/03 11:25:46;;;;;;;4.50;4.00;;;;;;;27.92;54.75;100454.19;5043696;28;20044;-82
2023/07/03 11:28:38;;;;;;;5.60;4.22;;;;;;;27.97;54.40;100459.22;5045835;28;20044;-87
2023/07/03 11:31:29;;;;;;;6.25;4.35;;;;;;;28.01;54.30;100442.34;5038160;28;20044;-87
2023/07/03 11:34:26;;;;;;;5.43;3.80;;;;;;;28.05;54.77;100451.41;5024980;28;20104;-83
2023/07/03 11:38:01;;;;;;;6.57;4.40;;;;;;;28.17;54.29;100435.97;5034628;28;20049;-82
2023/07/03 11:40:59;;;;;;;5.93;4.57;;;;;;;28.10;55.23;100442.50;4998730;28;20057;-83
2023/07/03 11:43:54;;;;;;;6.25;3.97;;;;;;;28.19;54.22;100441.91;5034780;28;20053;-83
2023/07/03 11:46:46;;;;;;;;;;;;;;;28.24;55.16;100446.97;5032071;28;20044;-83
2023/07/03 11:49:46;;;;;;;9.80;4.90;;;;;;;28.21;54.24;100450.63;5034546;28;19913;-83
2023/07/03 11:52:45;;;;;;;9.23;4.47;;;;;;;28.04;54.44;100447.06;5049747;28;20055;-83
2023/07/03 11:55:39;;;;;;;7.32;4.22;;;;;;;28.01;55.17;100433.97;5053148;28;20047;-83
2023/07/03 11:58:33;;;;;;;5.68;4.20;;;;;;;28.12;54.72;100419.72;5035211;28;20040;-83
2023/07/03 12:01:30;;;;;;;7.27;4.23;;;;;;;28.17;55.10;100413.59;5045651;28;20044;-83
2023/07/03 12:04:57;;;;;;;8.80;4.90;;;;;;;28.27;54.28;100406.91;5051262;28;20048;-83
2023/07/03 12:07:49;;;;;;;9.63;5.78;;;;;;;28.32;54.59;100420.34;4998482;28;20041;-84
2023/07/03 12:10:45;;;;;;;8.35;5.82;;;;;;;28.17;54.08;100419.19;5050442;28;20048;-85
2023/07/03 12:13:46;;;;;;;8.57;5.22;;;;;;;28.14;55.35;100425.66;5051289;28;20059;-86
2023/07/03 12:16:46;;;;;;;5.80;4.70;;;;;;;28.00;55.60;100427.59;5048522;28;20044;-87
2023/07/03 12:19:40;;;;;;;8.07;4.60;;;;;;;28.22;54.56;100418.63;5059335;28;20036;-84
2023/07/03 12:22:30;;;;;;;9.57;5.35;;;;;;;27.92;55.43;100423.44;5067305;28;20051;-84
2023/07/03 12:25:28;;;;;;;7.75;5.28;;;;;;;27.97;55.66;100436.88;5050957;28;20044;-84
2023/07/03 12:28:23;;;;;;;13.48;6.53;;;;;;;28.09;55.53;100444.50;5045043;28;20044;-87
2023/07/03 12:31:25;;;;;;;8.10;5.15;;;;;;;28.06;54.85;100447.41;5056419;28;20044;-85
2023/07/03 12:34:28;;;;;;;10.80;5.85;;;;;;;28.06;55.91;100439.03;5049611;28;20047;-86
2023/07/03 12:37:23;;;;;;;9.25;5.85;;;;;;;28.06;55.54;100434.22;5050034;28;20092;-87
2023/07/03 12:40:13;;;;;;;6.30;4.85;;;;;;;27.97;55.24;100422.88;5054785;28;20052;-82
2023/07/03 12:43:06;;;;;;;6.65;5.00;;;;;;;28.06;55.96;100442.59;5039109;28;20409;-83
2023/07/03 12:46:01;;;;;;;7.97;5.35;;;;;;;27.95;55.57;100444.09;5039262;28;20053;-84
2023/07/03 12:49:22;;;;;;;10.23;6.15;;;;;;;27.90;55.82;100458.63;5046843;28;20044;-82
2023/07/03 12:52:17;;;;;;;6.10;4.32;;;;;;;27.78;55.52;100435.00;5072393;28;20055;-83
2023/07/03 12:55:13;;;;;;;8.20;5.38;;;;;;;27.97;55.07;100425.69;5055009;28;20052;-84
2023/07/03 12:58:09;;;;;;;6.75;5.68;;;;;;;28.06;56.13;100423.03;5046853;28;20049;-83
2023/07/03 13:01:09;;;;;;;7.53;5.68;;;;;;;28.15;55.79;100421.63;5030297;28;20044;-83
2023/07/03 13:03:59;;;;;;;7.30;4.75;;;;;;;28.21;55.38;100419.84;5045606;28;20053;-83
2023/07/03 13:06:53;;;;;;;5.97;4.82;;;;;;;27.90;55.69;100420.28;5033406;28;20060;-84
2023/07/03 13:09:48;;;;;;;6.15;4.80;;;;;;;27.90;55.97;100425.09;5046770;28;20052;-83
2023/07/03 13:12:40;;;;;;;5.45;4.20;;;;;;;27.70;56.15;100430.81;5034656;28;20052;-87
2023/07/03 13:15:39;;;;;;;7.28;5.72;;;;;;;28.07;55.76;100438.59;5032769;28;20048;-84
2023/07/03 13:18:31;;;;;;;10.80;5.30;;;;;;;28.13;55.24;100429.69;5050025;28;20045;-84
2023/07/03 13:21:24;;;;;;;8.90;4.88;;;;;;;27.99;55.90;100426.00;5034270;28;20517;-85
2023/07/03 13:24:17;;;;;;;8.95;4.90;;;;;;;28.21;55.57;100428.25;5045238;28;20048;-84
2023/07/03 13:27:20;;;;;;;10.90;5.10;;;;;;;28.03;55.73;100429.53;5031626;28;20048;-84
2023/07/03 13:30:28;;;;;;;6.65;4.80;;;;;;;28.27;55.64;100443.25;5033458;28;20056;-84
2023/07/03 13:33:28;;;;;;;6.47;4.50;;;;;;;28.16;54.91;100432.38;5047526;28;20052;-84
2023/07/03 13:36:34;;;;;;;6.63;4.88;;;;;;;28.05;55.23;100420.66;5031326;28;20060;-85